Agate, Nebraska
Current Conditions -  °F | °C
As of 11:53 PM on Friday 24 Oct 2014 (Local Time) from KTOR Reporting Station
Clear Clear  
Wind Chill: 44°   Ceiling: Unl
Heat Index: 47°   Visibility: 10mi
Dew Point: 29°   Wind: 6mph
Humidity: 50%   Direction: 20°NNE
Pressure: 30.12"   Gusts: NA
Location:  42.42°N, 103.79°W
Report Text: KTOR 250553Z AUTO 02005KT 10SM CLR 08/M02 A3012 RMK AO2 SLP168 T00831017 10228 20072 51010
Loading
Personal Weather Stations






























Interactive Weather Map New forecast layout! Learn more

10-Day Weather Forecast

Advertisements
Track Severe Weather on mobile